Time;durP1;ratioP1;P1;durP2;ratioP2;P2;SDS_P1;SDS_P2;PMS_P1;PMS_P2;Temp;Humidity;BMP_temperature;BMP_pressure;BME280_temperature;BME280_humidity;BME280_pressure;Samples;Min_cycle;Max_cycle;Signal;HPM_P1;HPM_P2
2023/09/24 00:00:34;;;;;;;5.00;2.70;;;12.10;99.90;;;;;;5053155;28;20204;-72
2023/09/24 00:02:59;;;;;;;2.87;2.67;;;12.00;99.90;;;;;;5060797;28;20177;-72
2023/09/24 00:05:25;;;;;;;3.17;2.93;;;12.10;99.90;;;;;;5068853;28;20440;-72
2023/09/24 00:07:50;;;;;;;3.40;3.00;;;12.10;99.90;;;;;;5057395;28;20189;-72
2023/09/24 00:10:16;;;;;;;3.63;3.17;;;12.00;99.90;;;;;;5056928;28;20197;-71
2023/09/24 00:12:42;;;;;;;3.70;2.80;;;12.00;99.90;;;;;;5059540;28;20193;-72
2023/09/24 00:15:08;;;;;;;3.30;3.00;;;12.00;99.90;;;;;;5068629;28;20169;-72
2023/09/24 00:17:34;;;;;;;3.77;2.33;;;12.00;99.90;;;;;;5073234;28;20411;-72
2023/09/24 00:19:59;;;;;;;3.67;2.60;;;12.00;99.90;;;;;;5056511;28;20945;-72
2023/09/24 00:22:25;;;;;;;5.30;2.93;;;12.00;99.90;;;;;;5043705;28;20186;-72
2023/09/24 00:24:51;;;;;;;3.60;2.70;;;12.00;99.90;;;;;;5050795;28;20189;-72
2023/09/24 00:27:16;;;;;;;2.70;2.50;;;12.00;99.90;;;;;;5052101;28;20507;-72
2023/09/24 00:29:42;;;;;;;3.13;2.80;;;11.90;99.90;;;;;;5052062;28;20666;-72
2023/09/24 00:32:07;;;;;;;5.03;3.37;;;11.80;99.90;;;;;;5058500;28;20207;-72
2023/09/24 00:34:33;;;;;;;3.40;3.10;;;11.80;99.90;;;;;;5063225;28;20177;-72
2023/09/24 00:36:59;;;;;;;2.80;2.37;;;11.80;99.90;;;;;;5071961;28;20240;-72
2023/09/24 00:39:24;;;;;;;2.87;2.57;;;11.70;99.90;;;;;;5062771;28;20173;-72
2023/09/24 00:41:50;;;;;;;4.07;2.40;;;11.60;99.90;;;;;;5051634;28;20632;-72
2023/09/24 00:44:16;;;;;;;2.87;2.57;;;11.70;99.90;;;;;;5051458;28;20166;-71
2023/09/24 00:46:44;;;;;;;4.53;2.73;;;11.70;99.90;;;;;;5057811;28;20180;-72
2023/09/24 00:49:09;;;;;;;3.13;2.93;;;11.60;99.90;;;;;;5049516;28;20194;-70
2023/09/24 00:51:36;;;;;;;4.60;3.23;;;11.50;99.90;;;;;;5055499;28;20504;-70
2023/09/24 00:54:02;;;;;;;3.67;2.67;;;11.50;99.90;;;;;;5061919;28;20711;-70
2023/09/24 00:56:28;;;;;;;3.60;3.30;;;11.50;99.90;;;;;;5070616;28;20889;-70
2023/09/24 00:58:55;;;;;;;4.37;2.80;;;11.50;99.90;;;;;;5049180;28;20442;-70
2023/09/24 01:01:21;;;;;;;3.10;2.57;;;11.50;99.90;;;;;;5049799;28;20452;-70
2023/09/24 01:03:48;;;;;;;3.37;3.17;;;11.40;99.90;;;;;;5064908;28;20477;-70
2023/09/24 01:06:14;;;;;;;4.40;3.27;;;11.40;99.90;;;;;;5066206;28;20275;-70
2023/09/24 01:08:42;;;;;;;4.60;2.63;;;11.40;99.90;;;;;;5064491;28;20527;-69
2023/09/24 01:11:07;;;;;;;2.80;2.60;;;11.40;99.90;;;;;;5061143;28;20620;-70
2023/09/24 01:13:44;;;;;;;6.10;2.80;;;11.30;99.90;;;;;;5062327;28;20529;-69
2023/09/24 01:16:10;;;;;;;2.87;2.67;;;11.30;99.90;;;;;;5058443;28;20175;-69
2023/09/24 01:18:39;;;;;;;4.97;3.00;;;11.20;99.90;;;;;;5051118;28;20788;-70
2023/09/24 01:21:15;;;;;;;9.63;2.87;;;11.20;99.90;;;;;;5047526;28;20451;-69
2023/09/24 01:23:45;;;;;;;3.40;2.33;;;11.30;99.90;;;;;;5051932;28;20423;-69
2023/09/24 01:26:13;;;;;;;5.50;2.70;;;11.30;99.90;;;;;;5050691;28;20423;-70
2023/09/24 01:28:39;;;;;;;5.00;3.17;;;11.20;99.90;;;;;;5063114;28;20868;-70
2023/09/24 01:31:05;;;;;;;3.23;2.80;;;11.20;99.90;;;;;;5064884;28;20538;-70
2023/09/24 01:33:36;;;;;;;2.57;2.37;;;11.20;99.90;;;;;;5055212;28;20181;-70
2023/09/24 01:36:02;;;;;;;5.17;3.70;;;11.20;99.90;;;;;;5052520;28;20428;-70
2023/09/24 01:38:28;;;;;;;6.03;3.00;;;11.20;99.90;;;;;;5061860;28;20419;-70
2023/09/24 01:40:54;;;;;;;4.40;3.10;;;11.00;99.90;;;;;;5055685;28;20533;-70
2023/09/24 01:43:19;;;;;;;4.73;3.60;;;10.90;99.90;;;;;;5059102;28;20232;-70
2023/09/24 01:45:47;;;;;;;3.17;2.83;;;11.00;99.90;;;;;;5074129;28;20165;-70
2023/09/24 01:48:13;;;;;;;3.70;2.77;;;11.00;99.90;;;;;;5075645;28;20271;-70
2023/09/24 01:50:38;;;;;;;3.80;3.23;;;11.10;99.90;;;;;;5065158;28;20550;-69
2023/09/24 01:53:05;;;;;;;3.43;3.13;;;10.90;99.90;;;;;;5062528;28;20188;-69
2023/09/24 01:55:31;;;;;;;2.83;2.63;;;10.90;99.90;;;;;;5074493;28;20685;-70
2023/09/24 01:57:59;;;;;;;3.50;3.20;;;10.90;99.90;;;;;;5075521;28;20851;-69
2023/09/24 02:00:25;;;;;;;3.97;3.43;;;11.00;99.90;;;;;;5063570;28;20459;-69
2023/09/24 02:02:52;;;;;;;3.20;3.00;;;10.80;99.90;;;;;;5058820;28;20510;-69
2023/09/24 02:05:19;;;;;;;6.20;3.23;;;10.70;99.90;;;;;;5060968;28;20419;-69
2023/09/24 02:07:49;;;;;;;4.17;3.77;;;10.70;99.90;;;;;;5057522;28;20436;-69
2023/09/24 02:10:18;;;;;;;3.23;2.93;;;10.70;99.90;;;;;;5063469;28;20513;-69
2023/09/24 02:12:45;;;;;;;3.30;3.00;;;10.70;99.90;;;;;;5065331;28;20466;-69
2023/09/24 02:15:12;;;;;;;3.70;3.23;;;10.70;99.90;;;;;;5066776;28;20497;-69
2023/09/24 02:17:41;;;;;;;3.57;2.87;;;10.70;99.90;;;;;;5075143;28;20415;-69
2023/09/24 02:20:22;;;;;;;4.77;2.70;;;10.70;99.90;;;;;;5067118;28;20511;-69
2023/09/24 02:22:49;;;;;;;2.80;2.60;;;10.70;99.90;;;;;;5053612;28;20488;-69
2023/09/24 02:25:17;;;;;;;2.87;2.57;;;10.60;99.90;;;;;;5063257;28;20423;-69
2023/09/24 02:27:42;;;;;;;2.50;2.30;;;10.60;99.90;;;;;;5075207;28;20422;-69
2023/09/24 02:30:11;;;;;;;4.90;3.17;;;10.60;99.90;;;;;;5074701;28;20454;-69
2023/09/24 02:32:38;;;;;;;5.73;3.47;;;10.60;99.90;;;;;;5066455;28;20180;-69
2023/09/24 02:35:04;;;;;;;3.77;3.40;;;10.50;99.90;;;;;;5065825;28;20489;-69
2023/09/24 02:37:30;;;;;;;4.03;3.20;;;10.40;99.90;;;;;;5073398;28;20414;-69
2023/09/24 02:39:56;;;;;;;3.17;2.87;;;10.40;99.90;;;;;;5058343;28;20442;-69
2023/09/24 02:42:22;;;;;;;5.50;2.60;;;10.40;99.90;;;;;;5053314;28;20188;-69
2023/09/24 02:44:50;;;;;;;3.33;2.87;;;10.30;99.90;;;;;;5065922;28;20427;-69
2023/09/24 02:47:16;;;;;;;2.70;2.50;;;10.30;99.90;;;;;;5069919;28;20535;-69
2023/09/24 02:49:41;;;;;;;5.60;2.97;;;10.50;99.90;;;;;;5066063;28;20461;-69
2023/09/24 02:52:08;;;;;;;3.43;2.33;;;10.30;99.90;;;;;;5072048;28;20554;-69
2023/09/24 02:54:34;;;;;;;3.67;3.37;;;10.30;99.90;;;;;;5065941;28;20173;-69
2023/09/24 02:56:59;;;;;;;3.60;3.30;;;10.20;99.90;;;;;;5063463;28;20432;-69
2023/09/24 02:59:25;;;;;;;7.90;3.30;;;10.20;99.90;;;;;;5054267;28;20210;-69
2023/09/24 03:01:52;;;;;;;3.77;2.70;;;10.10;99.90;;;;;;5054589;28;20201;-69
2023/09/24 03:04:18;;;;;;;5.40;2.63;;;10.10;99.90;;;;;;5062764;28;20170;-69
2023/09/24 03:06:44;;;;;;;3.60;2.50;;;10.10;99.90;;;;;;5072017;28;20435;-69
2023/09/24 03:09:12;;;;;;;2.60;2.40;;;10.20;99.90;;;;;;5066229;28;20808;-69
2023/09/24 03:11:38;;;;;;;3.30;2.83;;;10.20;99.90;;;;;;5071286;28;22082;-69
2023/09/24 03:14:03;;;;;;;3.60;2.43;;;10.20;99.90;;;;;;5068314;28;20438;-69
2023/09/24 03:16:29;;;;;;;3.50;2.50;;;10.10;99.90;;;;;;5053811;28;20656;-69
2023/09/24 03:18:55;;;;;;;3.10;2.80;;;10.00;99.90;;;;;;5052915;28;20181;-69
2023/09/24 03:21:21;;;;;;;2.80;2.60;;;10.00;99.90;;;;;;5051928;28;20699;-69
2023/09/24 03:23:47;;;;;;;2.93;2.30;;;10.00;99.90;;;;;;5062005;28;20177;-69
2023/09/24 03:26:15;;;;;;;5.43;2.50;;;10.00;99.90;;;;;;5061138;28;20841;-69
2023/09/24 03:28:43;;;;;;;2.80;2.23;;;10.00;99.90;;;;;;5033857;28;20758;-69
2023/09/24 03:31:15;;;;;;;3.37;3.17;;;9.90;99.90;;;;;;5033813;28;20433;-69
2023/09/24 03:33:41;;;;;;;4.97;2.73;;;9.90;99.90;;;;;;5051179;28;20839;-69
2023/09/24 03:36:08;;;;;;;3.70;3.00;;;9.90;99.90;;;;;;5053585;28;20415;-69
2023/09/24 03:38:35;;;;;;;3.13;2.40;;;9.90;99.90;;;;;;5053780;28;20253;-69
2023/09/24 03:41:01;;;;;;;3.77;3.03;;;9.90;99.90;;;;;;5058583;28;20463;-69
2023/09/24 03:43:27;;;;;;;4.03;2.83;;;9.80;99.90;;;;;;5064394;28;20465;-69
2023/09/24 03:45:53;;;;;;;2.90;2.70;;;9.80;99.90;;;;;;5067191;28;20944;-69
2023/09/24 03:48:20;;;;;;;2.80;2.60;;;9.90;99.90;;;;;;5073342;28;20617;-69
2023/09/24 03:50:45;;;;;;;5.90;3.37;;;9.90;99.90;;;;;;5057939;28;20207;-69
2023/09/24 03:53:11;;;;;;;5.93;2.83;;;10.00;99.90;;;;;;5061776;28;20513;-69
2023/09/24 03:55:37;;;;;;;3.77;3.07;;;9.90;99.90;;;;;;5062074;28;20181;-69
2023/09/24 03:58:05;;;;;;;3.10;2.53;;;9.90;99.90;;;;;;5062658;28;20546;-69
2023/09/24 04:00:31;;;;;;;4.20;3.10;;;9.90;99.90;;;;;;5066602;28;20934;-69
2023/09/24 04:02:56;;;;;;;4.33;2.67;;;9.90;99.90;;;;;;5056496;28;20466;-69
2023/09/24 04:05:23;;;;;;;4.30;3.13;;;9.90;99.90;;;;;;5064907;28;20646;-69
2023/09/24 04:07:51;;;;;;;3.90;3.47;;;9.90;99.90;;;;;;5060177;28;20189;-69
2023/09/24 04:10:19;;;;;;;3.37;3.17;;;9.90;99.90;;;;;;5059018;28;20463;-69
2023/09/24 04:12:51;;;;;;;3.57;3.27;;;9.80;99.90;;;;;;5058143;28;20446;-69
2023/09/24 04:15:19;;;;;;;3.07;2.80;;;9.90;99.90;;;;;;5064543;28;20421;-69
2023/09/24 04:17:48;;;;;;;3.53;3.23;;;9.90;99.90;;;;;;5072846;28;20422;-69
2023/09/24 04:20:14;;;;;;;3.40;3.10;;;9.80;99.90;;;;;;5068678;28;20540;-69
2023/09/24 04:22:40;;;;;;;3.40;2.83;;;9.80;99.90;;;;;;5056086;28;20439;-69
2023/09/24 04:25:05;;;;;;;3.23;2.87;;;9.80;99.90;;;;;;5055067;28;20954;-69
2023/09/24 04:27:32;;;;;;;4.03;3.27;;;9.70;99.90;;;;;;5048536;28;20182;-69
2023/09/24 04:29:57;;;;;;;3.30;3.00;;;9.60;99.90;;;;;;5051304;28;20205;-70
2023/09/24 04:32:23;;;;;;;3.60;3.33;;;9.60;99.90;;;;;;5053320;28;20442;-69
2023/09/24 04:34:50;;;;;;;3.40;3.20;;;9.60;99.90;;;;;;5061231;28;20191;-69
2023/09/24 04:37:16;;;;;;;4.40;3.40;;;9.60;99.90;;;;;;5068921;28;20173;-69
2023/09/24 04:39:44;;;;;;;4.03;3.73;;;9.60;99.90;;;;;;5060712;28;20427;-69
2023/09/24 04:42:11;;;;;;;4.03;2.40;;;9.70;99.90;;;;;;5053641;28;20509;-69
2023/09/24 04:44:38;;;;;;;2.60;2.40;;;9.60;99.90;;;;;;5051020;28;20436;-69
2023/09/24 04:47:04;;;;;;;3.17;2.87;;;9.50;99.90;;;;;;5067614;28;20419;-69
2023/09/24 04:49:30;;;;;;;4.50;3.27;;;9.50;99.90;;;;;;5072122;28;20512;-69
2023/09/24 04:51:56;;;;;;;3.23;3.00;;;9.50;99.90;;;;;;5072279;28;20438;-70
2023/09/24 04:54:22;;;;;;;4.87;3.20;;;9.40;99.90;;;;;;5061147;28;20441;-69
2023/09/24 04:56:48;;;;;;;3.90;3.03;;;9.40;99.90;;;;;;5065120;28;20168;-69
2023/09/24 04:59:14;;;;;;;3.17;2.97;;;9.40;99.90;;;;;;5061021;28;20431;-69
2023/09/24 05:01:39;;;;;;;6.80;2.93;;;9.50;99.90;;;;;;5050294;28;20995;-69
2023/09/24 05:04:05;;;;;;;3.80;3.50;;;9.40;99.90;;;;;;5058281;28;20662;-69
2023/09/24 05:06:32;;;;;;;3.47;3.17;;;9.40;99.90;;;;;;5063304;28;20185;-69
2023/09/24 05:08:58;;;;;;;4.00;3.33;;;9.40;99.90;;;;;;5072174;28;20188;-69
2023/09/24 05:11:23;;;;;;;3.30;3.00;;;9.30;99.90;;;;;;5072388;28;20948;-69
2023/09/24 05:13:49;;;;;;;4.40;3.17;;;9.30;99.90;;;;;;5060375;28;20428;-69
2023/09/24 05:16:15;;;;;;;3.40;3.10;;;9.30;99.90;;;;;;5063297;28;20184;-69
2023/09/24 05:18:41;;;;;;;3.93;3.50;;;9.30;99.90;;;;;;5053510;28;20231;-69
2023/09/24 05:21:14;;;;;;;3.87;3.57;;;9.30;99.90;;;;;;5057235;28;20983;-69
2023/09/24 05:23:40;;;;;;;3.97;3.20;;;9.30;99.90;;;;;;5050471;28;20518;-69
2023/09/24 05:26:11;;;;;;;4.00;3.17;;;9.30;99.90;;;;;;5062123;28;20900;-69
2023/09/24 05:28:36;;;;;;;2.97;2.67;;;9.30;99.90;;;;;;5066556;28;20195;-69
2023/09/24 05:31:02;;;;;;;9.20;3.63;;;9.30;99.90;;;;;;5063501;28;20439;-69
2023/09/24 05:33:27;;;;;;;4.00;3.00;;;9.40;99.90;;;;;;5061967;28;20209;-69
2023/09/24 05:35:53;;;;;;;3.93;3.43;;;9.40;99.90;;;;;;5051655;28;20181;-69
2023/09/24 05:38:19;;;;;;;3.70;3.13;;;9.40;99.90;;;;;;5052262;28;20220;-69
2023/09/24 05:40:45;;;;;;;3.30;3.00;;;9.50;99.90;;;;;;5051522;28;20600;-69
2023/09/24 05:43:10;;;;;;;4.03;3.73;;;9.50;99.90;;;;;;5046569;28;20177;-69
2023/09/24 05:45:37;;;;;;;7.33;3.10;;;9.60;99.90;;;;;;5062937;28;20177;-69
2023/09/24 05:48:03;;;;;;;6.13;3.27;;;9.70;99.90;;;;;;5062317;28;20180;-69
2023/09/24 05:50:29;;;;;;;4.47;3.07;;;9.80;99.90;;;;;;5059451;28;20470;-69
2023/09/24 05:52:54;;;;;;;4.00;3.47;;;9.90;99.90;;;;;;5050322;28;20419;-69
2023/09/24 05:55:20;;;;;;;6.87;3.03;;;10.10;99.90;;;;;;5057854;28;20224;-69
2023/09/24 05:57:45;;;;;;;3.20;2.73;;;10.30;99.90;;;;;;5064198;28;20169;-69
2023/09/24 06:00:12;;;;;;;3.30;2.83;;;10.40;99.90;;;;;;5068966;28;20629;-69
2023/09/24 06:02:38;;;;;;;3.60;3.10;;;10.50;99.90;;;;;;5062485;28;20169;-69
2023/09/24 06:05:05;;;;;;;3.03;2.60;;;10.70;99.90;;;;;;5069020;28;21051;-69
2023/09/24 06:07:31;;;;;;;6.33;3.40;;;10.80;99.90;;;;;;5062995;28;20419;-69
2023/09/24 06:09:58;;;;;;;4.40;3.03;;;11.00;99.90;;;;;;5051186;28;20452;-69
2023/09/24 06:12:24;;;;;;;3.27;3.00;;;11.20;99.90;;;;;;5049362;28;20196;-69
2023/09/24 06:14:50;;;;;;;3.33;2.73;;;11.30;99.90;;;;;;5043514;28;20786;-69
2023/09/24 06:17:16;;;;;;;3.50;3.20;;;11.50;99.90;;;;;;5046687;28;20431;-69
2023/09/24 06:19:41;;;;;;;3.50;2.60;;;11.60;99.90;;;;;;5050194;28;20181;-69
2023/09/24 06:22:07;;;;;;;2.70;2.50;;;11.70;99.90;;;;;;5063796;28;20193;-69
2023/09/24 06:24:32;;;;;;;4.80;3.30;;;11.80;99.90;;;;;;5070133;28;20196;-69
2023/09/24 06:26:58;;;;;;;4.17;2.73;;;12.00;99.90;;;;;;5069294;28;20180;-69
2023/09/24 06:29:23;;;;;;;3.17;2.87;;;12.10;99.90;;;;;;5060334;28;20212;-69
2023/09/24 06:31:50;;;;;;;4.97;3.20;;;12.30;99.90;;;;;;5058895;28;20189;-69
2023/09/24 06:34:16;;;;;;;3.87;3.23;;;12.40;99.90;;;;;;5051411;28;20260;-69
2023/09/24 06:36:41;;;;;;;4.00;3.50;;;12.60;99.90;;;;;;5064043;28;20474;-69
2023/09/24 06:39:09;;;;;;;5.30;3.20;;;12.80;99.90;;;;;;5059020;28;20524;-69
2023/09/24 06:41:35;;;;;;;3.33;3.03;;;13.00;99.90;;;;;;5054598;28;20575;-69
2023/09/24 06:44:00;;;;;;;5.23;4.70;;;13.20;99.90;;;;;;5054587;28;20420;-69
2023/09/24 06:46:26;;;;;;;6.20;5.70;;;13.40;99.90;;;;;;5066521;28;20489;-69
2023/09/24 06:48:51;;;;;;;4.57;4.17;;;13.60;99.90;;;;;;5062916;28;20295;-69
2023/09/24 06:51:17;;;;;;;6.90;4.33;;;13.80;99.90;;;;;;5053275;28;20198;-69
2023/09/24 06:53:43;;;;;;;3.50;3.30;;;13.90;99.90;;;;;;5057851;28;20184;-69
2023/09/24 06:56:08;;;;;;;3.93;3.50;;;14.20;99.90;;;;;;5066092;28;20181;-69
2023/09/24 06:58:35;;;;;;;2.87;2.67;;;14.30;99.90;;;;;;5074490;28;20677;-69
2023/09/24 07:01:03;;;;;;;3.90;3.60;;;14.50;99.90;;;;;;5070133;28;20295;-69
2023/09/24 07:03:29;;;;;;;5.30;4.80;;;14.80;99.90;;;;;;5053140;28;20798;-69
2023/09/24 07:05:55;;;;;;;5.50;4.57;;;15.00;99.90;;;;;;5059824;28;20434;-69
2023/09/24 07:08:20;;;;;;;6.10;5.50;;;15.10;99.90;;;;;;5074088;28;20964;-70
2023/09/24 07:11:10;;;;;;;6.83;4.40;;;15.30;99.90;;;;;;5066213;28;20563;-69
2023/09/24 07:13:35;;;;;;;8.90;4.13;;;15.50;99.90;;;;;;5051022;28;20178;-69
2023/09/24 07:16:01;;;;;;;3.90;3.40;;;15.60;99.90;;;;;;5050940;28;20443;-69
2023/09/24 07:18:27;;;;;;;7.33;3.00;;;15.50;99.90;;;;;;5051563;28;20176;-69
2023/09/24 07:20:52;;;;;;;4.80;2.97;;;15.20;99.90;;;;;;5052618;28;20455;-69
2023/09/24 07:23:18;;;;;;;4.20;3.90;;;15.20;99.90;;;;;;5053617;28;20185;-69
2023/09/24 07:25:44;;;;;;;6.47;3.57;;;15.40;99.90;;;;;;5063114;28;20448;-69
2023/09/24 07:28:09;;;;;;;3.63;3.27;;;15.70;99.90;;;;;;5065519;28;20590;-70
2023/09/24 07:30:35;;;;;;;3.97;3.33;;;15.90;99.90;;;;;;5069737;28;20204;-71
2023/09/24 07:33:00;;;;;;;3.63;3.20;;;16.00;99.90;;;;;;5052407;28;20174;-71
2023/09/24 07:35:26;;;;;;;5.10;3.03;;;16.00;99.90;;;;;;5061268;28;20181;-71
2023/09/24 07:37:51;;;;;;;3.67;3.10;;;16.00;99.90;;;;;;5050581;28;20181;-71
2023/09/24 07:40:17;;;;;;;4.50;3.57;;;15.90;99.90;;;;;;5058798;28;20207;-71
2023/09/24 07:42:46;;;;;;;4.40;4.10;;;15.90;99.90;;;;;;5068163;28;20267;-71
2023/09/24 07:45:13;;;;;;;3.77;3.47;;;15.80;99.90;;;;;;5064551;28;20231;-71
2023/09/24 07:47:38;;;;;;;7.10;3.67;;;15.70;99.90;;;;;;5066660;28;20489;-70
2023/09/24 07:50:04;;;;;;;4.20;3.50;;;16.20;99.90;;;;;;5068480;28;20823;-70
2023/09/24 07:52:31;;;;;;;4.50;3.40;;;16.70;99.90;;;;;;5060230;28;20200;-70
2023/09/24 07:54:57;;;;;;;3.50;3.20;;;17.10;99.90;;;;;;5052857;28;20256;-71
2023/09/24 07:57:22;;;;;;;3.53;3.20;;;17.30;99.90;;;;;;5068295;28;20521;-70
2023/09/24 07:59:48;;;;;;;3.87;3.40;;;17.60;99.90;;;;;;5064820;28;20634;-70
2023/09/24 08:02:13;;;;;;;3.60;3.30;;;18.00;99.90;;;;;;5073211;28;20189;-71
2023/09/24 08:04:39;;;;;;;5.70;3.40;;;18.30;99.90;;;;;;5072697;28;20226;-70
2023/09/24 08:07:04;;;;;;;3.63;3.30;;;18.60;99.90;;;;;;5063507;28;20185;-70
2023/09/24 08:09:30;;;;;;;8.50;4.53;;;18.80;99.90;;;;;;5063092;28;20237;-70
2023/09/24 08:11:55;;;;;;;5.20;3.63;;;18.90;99.90;;;;;;5051695;28;20262;-70
2023/09/24 08:14:21;;;;;;;3.30;3.10;;;19.10;99.90;;;;;;5061501;28;20180;-70
2023/09/24 08:16:47;;;;;;;2.80;2.60;;;19.50;99.90;;;;;;5065714;28;20183;-70
2023/09/24 08:19:12;;;;;;;4.60;3.60;;;19.40;99.90;;;;;;5070116;28;20169;-71
2023/09/24 08:21:38;;;;;;;3.50;3.20;;;19.80;99.90;;;;;;5064450;28;20561;-71
2023/09/24 08:24:04;;;;;;;4.60;3.00;;;20.10;99.90;;;;;;5065935;28;20177;-70
2023/09/24 08:26:29;;;;;;;3.60;3.30;;;20.40;99.90;;;;;;5064253;28;20312;-70
2023/09/24 08:28:55;;;;;;;3.07;2.87;;;20.70;99.90;;;;;;5060217;28;20205;-71
2023/09/24 08:31:20;;;;;;;5.53;3.27;;;20.90;99.90;;;;;;5060014;28;20196;-70
2023/09/24 08:33:46;;;;;;;3.63;2.70;;;20.70;99.90;;;;;;5056183;28;20234;-71
2023/09/24 08:36:12;;;;;;;2.93;2.60;;;21.20;99.90;;;;;;5070051;28;20571;-71
2023/09/24 08:38:37;;;;;;;2.50;2.30;;;21.50;99.90;;;;;;5064125;28;20264;-70
2023/09/24 08:41:10;;;;;;;3.30;2.20;;;21.60;99.90;;;;;;5072338;28;20439;-71
2023/09/24 08:43:38;;;;;;;3.47;2.43;;;22.40;99.90;;;;;;5072349;28;20164;-71
2023/09/24 08:46:04;;;;;;;3.90;3.07;;;22.90;99.90;;;;;;5056149;28;20432;-71
2023/09/24 08:48:31;;;;;;;2.60;2.40;;;23.20;99.90;;;;;;5052032;28;20459;-71
2023/09/24 08:50:57;;;;;;;3.00;2.20;;;23.10;99.90;;;;;;5052148;28;20428;-71
2023/09/24 08:53:27;;;;;;;2.53;2.20;;;23.20;99.90;;;;;;5053851;28;20569;-71
2023/09/24 08:55:54;;;;;;;2.00;1.80;;;23.40;99.90;;;;;;5061667;28;20459;-71
2023/09/24 08:58:19;;;;;;;3.63;2.90;;;23.70;99.90;;;;;;5069215;28;20430;-71
2023/09/24 09:00:45;;;;;;;6.13;3.70;;;23.90;99.90;;;;;;5064658;28;20956;-68
2023/09/24 09:03:10;;;;;;;6.17;2.20;;;24.30;99.90;;;;;;5057435;28;20181;-72
2023/09/24 09:05:37;;;;;;;3.60;2.43;;;24.20;99.90;;;;;;5054271;28;20226;-72
2023/09/24 09:08:04;;;;;;;2.20;2.00;;;24.80;99.90;;;;;;5068559;28;20268;-74
2023/09/24 09:10:31;;;;;;;6.20;2.23;;;24.90;99.60;;;;;;5051957;28;20545;-71
2023/09/24 09:13:06;;;;;;;2.47;1.60;;;26.00;98.90;;;;;;5049105;28;20450;-72
2023/09/24 09:15:33;;;;;;;2.40;2.20;;;27.10;96.80;;;;;;5061565;28;20427;-72
2023/09/24 09:18:00;;;;;;;2.80;2.10;;;27.50;95.70;;;;;;5064425;28;20764;-72
2023/09/24 09:20:59;;;;;;;2.53;2.10;;;28.50;93.80;;;;;;5046075;28;20473;-71
2023/09/24 09:23:41;;;;;;;2.17;1.97;;;29.50;91.00;;;;;;5057985;28;20952;-70
2023/09/24 09:26:07;;;;;;;2.60;2.40;;;30.30;86.00;;;;;;5069210;28;20496;-70
2023/09/24 09:28:34;;;;;;;2.50;2.30;;;30.60;82.80;;;;;;5062170;28;20447;-70
2023/09/24 09:31:00;;;;;;;4.80;2.90;;;30.90;80.90;;;;;;5059347;28;20189;-71
2023/09/24 09:33:27;;;;;;;2.60;2.40;;;31.30;78.40;;;;;;5057398;28;20790;-70
2023/09/24 09:35:54;;;;;;;3.53;2.50;;;31.90;77.20;;;;;;5055564;28;20204;-70
2023/09/24 09:38:20;;;;;;;2.33;2.10;;;32.30;74.10;;;;;;5050174;28;20442;-69
2023/09/24 09:40:47;;;;;;;8.00;2.73;;;32.50;73.50;;;;;;5050714;28;20444;-69
2023/09/24 09:43:16;;;;;;;5.53;2.40;;;32.50;70.30;;;;;;5063359;28;20431;-69
2023/09/24 09:45:44;;;;;;;2.20;2.00;;;32.50;68.40;;;;;;5053793;28;20427;-69
2023/09/24 09:48:12;;;;;;;2.50;2.30;;;32.00;68.60;;;;;;5063263;28;20415;-69
2023/09/24 09:50:45;;;;;;;2.83;2.10;;;32.00;68.10;;;;;;5071474;28;20434;-69
2023/09/24 09:53:16;;;;;;;2.80;2.40;;;32.20;67.10;;;;;;5056291;28;20793;-70
2023/09/24 09:55:43;;;;;;;3.17;2.40;;;32.50;66.50;;;;;;5043638;28;20416;-70
2023/09/24 09:58:10;;;;;;;2.80;2.60;;;33.30;64.50;;;;;;5064525;28;20449;-70
2023/09/24 10:00:36;;;;;;;2.57;2.37;;;33.50;62.70;;;;;;5057608;28;20451;-70
2023/09/24 10:03:03;;;;;;;2.17;1.97;;;34.10;61.60;;;;;;5063406;28;20489;-70
2023/09/24 10:05:30;;;;;;;2.50;2.10;;;34.20;60.30;;;;;;5067885;28;20932;-70
2023/09/24 10:07:56;;;;;;;4.87;2.07;;;34.90;59.50;;;;;;5067090;28;20748;-69
2023/09/24 10:10:34;;;;;;;5.40;4.90;;;35.60;55.90;;;;;;5073387;28;20494;-70
2023/09/24 10:13:01;;;;;;;2.93;2.63;;;35.50;55.30;;;;;;5047422;28;20216;-70
2023/09/24 10:15:30;;;;;;;4.00;2.30;;;34.50;55.10;;;;;;5063156;28;20498;-70
2023/09/24 10:18:09;;;;;;;2.33;2.13;;;34.20;55.60;;;;;;5054968;28;20424;-70
2023/09/24 10:20:50;;;;;;;2.83;2.63;;;33.80;55.90;;;;;;5060858;28;20885;-70
2023/09/24 10:23:31;;;;;;;4.27;2.40;;;34.10;56.10;;;;;;5070566;28;20449;-70
2023/09/24 10:26:00;;;;;;;2.73;2.40;;;34.70;55.70;;;;;;5068300;28;20470;-70
2023/09/24 10:28:48;;;;;;;3.17;2.73;;;35.20;55.00;;;;;;5054176;28;20437;-70
2023/09/24 10:31:16;;;;;;;2.53;2.33;;;36.30;54.00;;;;;;5050663;28;20482;-69
2023/09/24 10:33:58;;;;;;;4.10;3.37;;;36.90;52.50;;;;;;5057583;28;20955;-70
2023/09/24 10:36:29;;;;;;;4.50;2.20;;;36.60;52.00;;;;;;5066374;28;20419;-67
2023/09/24 10:39:13;;;;;;;4.10;2.40;;;37.20;52.00;;;;;;5074795;28;20916;-67
2023/09/24 10:42:09;;;;;;;3.50;2.80;;;38.10;47.30;;;;;;5074588;28;20438;-66
2023/09/24 10:44:39;;;;;;;2.50;2.30;;;38.60;46.00;;;;;;5072637;28;20930;-66
2023/09/24 10:47:23;;;;;;;3.97;2.50;;;37.80;45.70;;;;;;5055000;28;20439;-67
2023/09/24 10:50:12;;;;;;;2.50;2.30;;;37.80;45.90;;;;;;5054410;28;20487;-66
2023/09/24 10:52:54;;;;;;;2.80;2.30;;;37.20;45.00;;;;;;5055609;28;20435;-68
2023/09/24 10:55:45;;;;;;;2.93;2.63;;;38.20;44.40;;;;;;5060975;28;20538;-69
2023/09/24 10:58:15;;;;;;;3.43;3.23;;;39.10;42.30;;;;;;5064254;28;20427;-67
2023/09/24 11:00:43;;;;;;;2.60;2.27;;;38.70;41.50;;;;;;5054432;28;20423;-67
2023/09/24 11:03:13;;;;;;;2.47;2.27;;;38.60;41.40;;;;;;5052978;28;20514;-66
2023/09/24 11:05:41;;;;;;;2.03;1.87;;;38.20;40.70;;;;;;5052246;28;20442;-66
2023/09/24 11:08:08;;;;;;;2.57;2.20;;;37.60;40.50;;;;;;5064656;28;20647;-66
2023/09/24 11:10:34;;;;;;;3.70;2.17;;;35.10;41.50;;;;;;5066100;28;20588;-67
2023/09/24 11:13:02;;;;;;;2.40;2.30;;;35.00;42.40;;;;;;5059973;28;20451;-66
2023/09/24 11:15:31;;;;;;;2.20;2.10;;;35.70;42.10;;;;;;5064081;28;20419;-66
2023/09/24 11:17:57;;;;;;;2.50;2.30;;;33.10;41.50;;;;;;5073067;28;20399;-66
2023/09/24 11:20:24;;;;;;;2.83;2.30;;;30.60;44.70;;;;;;5062234;28;21030;-69
2023/09/24 11:23:03;;;;;;;2.43;1.77;;;29.20;46.50;;;;;;5053862;28;20181;-68
2023/09/24 11:25:29;;;;;;;2.70;2.50;;;29.40;47.00;;;;;;5065111;28;20959;-68
2023/09/24 11:28:01;;;;;;;2.97;2.70;;;30.40;46.20;;;;;;5074285;28;20490;-67
2023/09/24 11:30:43;;;;;;;2.90;2.50;;;30.20;45.70;;;;;;5074201;28;20455;-69
2023/09/24 11:33:14;;;;;;;3.07;2.47;;;31.00;46.40;;;;;;5057835;28;20436;-67
2023/09/24 11:35:40;;;;;;;2.80;2.60;;;33.40;43.60;;;;;;5055423;28;21105;-66
2023/09/24 11:38:05;;;;;;;4.43;2.77;;;34.10;42.60;;;;;;5054133;28;20460;-66
2023/09/24 11:40:32;;;;;;;2.10;1.80;;;35.10;42.50;;;;;;5055963;28;21045;-67
2023/09/24 11:43:04;;;;;;;4.17;2.70;;;36.70;40.60;;;;;;5057739;28;20197;-66
2023/09/24 11:46:03;;;;;;;3.63;2.40;;;37.70;39.80;;;;;;5053568;28;20424;-66
2023/09/24 11:48:29;;;;;;;2.20;2.10;;;37.80;39.40;;;;;;5051283;28;20450;-66
2023/09/24 11:50:56;;;;;;;2.07;1.97;;;38.40;38.30;;;;;;5063002;28;20517;-68
2023/09/24 11:53:24;;;;;;;2.43;2.23;;;36.90;38.00;;;;;;5058590;28;20490;-67
2023/09/24 11:55:53;;;;;;;2.43;2.20;;;34.40;40.50;;;;;;5064801;28;20411;-66
2023/09/24 11:58:20;;;;;;;3.10;1.77;;;32.30;42.00;;;;;;5062824;28;20780;-65
2023/09/24 12:00:46;;;;;;;3.10;2.80;;;30.70;43.70;;;;;;5073235;28;20434;-68
2023/09/24 12:03:12;;;;;;;5.63;2.90;;;29.50;44.90;;;;;;5068314;28;20482;-67
2023/09/24 12:05:38;;;;;;;3.73;2.30;;;29.90;44.80;;;;;;5049915;28;20432;-66
2023/09/24 12:08:05;;;;;;;3.30;2.37;;;29.30;45.60;;;;;;5052984;28;20795;-67
2023/09/24 12:10:32;;;;;;;2.30;2.00;;;28.30;46.20;;;;;;5052159;28;20208;-69
2023/09/24 12:13:01;;;;;;;3.23;2.20;;;30.20;45.00;;;;;;5062461;28;20491;-67
2023/09/24 12:15:28;;;;;;;5.07;2.40;;;31.40;42.70;;;;;;5069078;28;20472;-68
2023/09/24 12:17:55;;;;;;;3.07;2.30;;;30.00;43.60;;;;;;5053606;28;20520;-69
2023/09/24 12:20:21;;;;;;;2.30;2.10;;;31.40;43.40;;;;;;5060758;28;20452;-68
2023/09/24 12:22:46;;;;;;;3.23;2.60;;;33.40;41.10;;;;;;5049361;28;20960;-69
2023/09/24 12:25:12;;;;;;;2.83;2.23;;;32.50;41.10;;;;;;5050964;28;20176;-70
2023/09/24 12:27:39;;;;;;;3.23;2.10;;;31.60;42.00;;;;;;5064258;28;20185;-69
2023/09/24 12:30:07;;;;;;;4.53;2.30;;;32.40;41.40;;;;;;5072327;28;20203;-68
2023/09/24 12:32:34;;;;;;;2.73;2.43;;;31.70;41.90;;;;;;5056574;28;21205;-68
2023/09/24 12:35:02;;;;;;;2.23;2.00;;;29.90;43.30;;;;;;5064712;28;20427;-70
2023/09/24 12:37:28;;;;;;;2.57;2.37;;;27.90;45.30;;;;;;5049496;28;20431;-68
2023/09/24 12:39:55;;;;;;;3.70;2.03;;;27.00;45.60;;;;;;5045696;28;20415;-68
2023/09/24 12:42:21;;;;;;;2.20;1.97;;;29.80;44.20;;;;;;5063485;28;20463;-68
2023/09/24 12:44:48;;;;;;;3.50;2.80;;;32.70;41.80;;;;;;5052048;28;20412;-68
2023/09/24 12:47:13;;;;;;;3.23;2.50;;;35.10;39.30;;;;;;5061893;28;20423;-69
2023/09/24 12:49:39;;;;;;;3.07;2.33;;;36.50;38.20;;;;;;5066493;28;20514;-68